createdAt,value
2023-02-12T00:01:18.155Z,2.53
2023-02-12T00:03:45.970Z,3.27
2023-02-12T00:06:15.951Z,2.97
2023-02-12T00:08:43.944Z,2.47
2023-02-12T00:11:18.364Z,3.08
2023-02-12T00:13:46.068Z,2.80
2023-02-12T00:16:17.596Z,3.15
2023-02-12T00:18:45.613Z,2.55
2023-02-12T00:21:14.167Z,4.00
2023-02-12T00:23:41.987Z,3.03
2023-02-12T00:26:10.186Z,3.90
2023-02-12T00:28:38.136Z,3.80
2023-02-12T00:31:07.195Z,3.35
2023-02-12T00:33:36.122Z,3.22
2023-02-12T00:36:04.041Z,3.85
2023-02-12T00:38:31.960Z,3.37
2023-02-12T00:40:59.662Z,3.80
2023-02-12T00:43:27.460Z,3.08
2023-02-12T00:45:55.520Z,3.40
2023-02-12T00:48:23.559Z,3.50
2023-02-12T00:50:51.252Z,3.78
2023-02-12T00:53:19.782Z,3.50
2023-02-12T00:55:47.554Z,4.10
2023-02-12T00:58:18.882Z,3.50
2023-02-12T01:00:46.834Z,3.83
2023-02-12T01:03:14.600Z,3.20
2023-02-12T01:05:42.351Z,3.95
2023-02-12T01:08:11.967Z,4.05
2023-02-12T01:10:39.764Z,3.60
2023-02-12T01:13:07.452Z,3.63
2023-02-12T01:15:35.349Z,4.95
2023-02-12T01:18:03.888Z,3.80
2023-02-12T01:20:31.692Z,4.00
2023-02-12T01:23:01.839Z,3.75
2023-02-12T01:25:29.684Z,3.53
2023-02-12T01:27:57.691Z,3.40
2023-02-12T01:30:25.412Z,3.70
2023-02-12T01:32:53.230Z,3.50
2023-02-12T01:35:20.901Z,3.73
2023-02-12T01:37:51.722Z,3.10
2023-02-12T01:40:19.458Z,3.75
2023-02-12T01:42:47.891Z,3.53
2023-02-12T01:45:15.635Z,3.47
2023-02-12T01:47:44.517Z,4.65
2023-02-12T01:50:13.441Z,3.28
2023-02-12T01:52:41.253Z,3.80
2023-02-12T01:55:09.375Z,4.15
2023-02-12T01:57:39.309Z,4.00
2023-02-12T02:00:08.202Z,4.67
2023-02-12T02:02:36.053Z,4.00
2023-02-12T02:05:04.013Z,5.40
2023-02-12T02:07:31.717Z,5.10
2023-02-12T02:09:59.454Z,4.90
2023-02-12T02:12:46.034Z,4.78
2023-02-12T02:15:13.786Z,3.83
2023-02-12T02:18:00.278Z,3.87
2023-02-12T02:20:28.044Z,4.68
2023-02-12T02:23:01.746Z,3.70
2023-02-12T02:25:38.514Z,4.23
2023-02-12T02:28:09.187Z,3.58
2023-02-12T02:30:45.989Z,3.58
2023-02-12T02:33:23.831Z,3.60
2023-02-12T02:35:57.383Z,3.35
2023-02-12T02:38:27.012Z,3.78
2023-02-12T02:40:56.682Z,3.40
2023-02-12T02:43:26.582Z,4.43
2023-02-12T02:45:56.146Z,4.50
2023-02-12T02:48:43.579Z,4.00
2023-02-12T02:51:13.203Z,3.57
2023-02-12T02:53:43.458Z,4.13
2023-02-12T02:56:13.512Z,4.63
2023-02-12T02:58:43.957Z,3.57
2023-02-12T03:01:29.745Z,4.00
2023-02-12T03:03:57.431Z,4.65
2023-02-12T03:06:38.947Z,3.42
2023-02-12T03:09:25.005Z,3.70
2023-02-12T03:11:52.921Z,3.70
2023-02-12T03:14:24.836Z,4.85
2023-02-12T03:16:57.672Z,4.23
2023-02-12T03:19:26.366Z,8.02
2023-02-12T03:21:58.607Z,4.97
2023-02-12T03:24:45.049Z,4.57
2023-02-12T03:27:15.045Z,3.42
2023-02-12T03:29:42.836Z,3.50
2023-02-12T03:32:10.567Z,2.67
2023-02-12T03:34:44.332Z,2.37
2023-02-12T03:37:14.001Z,3.17
2023-02-12T03:40:03.753Z,2.90
2023-02-12T03:42:34.546Z,2.53
2023-02-12T03:45:09.382Z,3.17
2023-02-12T03:47:55.886Z,2.45
2023-02-12T03:50:44.379Z,2.33
2023-02-12T03:53:12.110Z,2.40
2023-02-12T03:55:41.638Z,2.30
2023-02-12T03:58:10.155Z,2.10
2023-02-12T04:00:38.594Z,2.00
2023-02-12T04:03:06.498Z,1.77
2023-02-12T04:05:34.249Z,1.75
2023-02-12T04:08:02.169Z,2.00
2023-02-12T04:10:37.994Z,2.17
2023-02-12T04:13:20.206Z,1.83
2023-02-12T04:15:52.375Z,2.87
2023-02-12T04:18:21.020Z,2.20
2023-02-12T04:21:07.880Z,2.30
2023-02-12T04:23:43.837Z,2.10
2023-02-12T04:26:23.972Z,1.93
2023-02-12T04:28:59.133Z,2.28
2023-02-12T04:31:34.608Z,2.20
2023-02-12T04:34:05.803Z,2.20
2023-02-12T04:36:35.057Z,1.35
2023-02-12T04:39:13.054Z,1.23
2023-02-12T04:41:41.441Z,0.83
2023-02-12T04:44:15.952Z,1.23
2023-02-12T04:46:43.751Z,0.80
2023-02-12T04:49:14.092Z,1.13
2023-02-12T04:51:41.790Z,1.13
2023-02-12T04:54:09.523Z,1.50
2023-02-12T04:56:37.236Z,1.52
2023-02-12T04:59:05.141Z,1.13
2023-02-12T05:01:34.696Z,1.10
2023-02-12T05:04:02.549Z,1.55
2023-02-12T05:06:33.300Z,1.40
2023-02-12T05:09:01.153Z,1.70
2023-02-12T05:11:28.952Z,2.05
2023-02-12T05:13:56.734Z,1.33
2023-02-12T05:16:24.464Z,1.90
2023-02-12T05:18:52.137Z,1.38
2023-02-12T05:21:19.885Z,1.92
2023-02-12T05:23:47.570Z,1.03
2023-02-12T05:26:16.267Z,1.52
2023-02-12T05:28:44.022Z,1.05
2023-02-12T05:31:12.408Z,1.73
2023-02-12T05:33:40.188Z,2.05
2023-02-12T05:36:08.891Z,4.30
2023-02-12T05:38:36.752Z,2.08
2023-02-12T05:41:05.078Z,1.07
2023-02-12T05:43:32.860Z,0.85
2023-02-12T05:46:01.048Z,1.42
2023-02-12T05:48:29.109Z,1.00
2023-02-12T05:51:02.488Z,0.90
2023-02-12T05:53:30.244Z,1.20
2023-02-12T05:56:07.410Z,1.00
2023-02-12T05:58:35.365Z,1.10
2023-02-12T06:01:03.081Z,1.20
2023-02-12T06:03:30.852Z,1.27
2023-02-12T06:05:58.583Z,1.93
2023-02-12T06:08:26.444Z,1.65
2023-02-12T06:10:54.205Z,3.10
2023-02-12T06:13:21.865Z,6.00
2023-02-12T06:15:51.984Z,5.90
2023-02-12T06:18:19.968Z,5.35
2023-02-12T06:20:47.682Z,2.40
2023-02-12T06:23:16.769Z,4.53
2023-02-12T06:25:47.565Z,2.45
2023-02-12T06:28:15.489Z,2.92
2023-02-12T06:30:43.492Z,4.30
2023-02-12T06:33:11.294Z,3.80
2023-02-12T06:35:38.961Z,2.58
2023-02-12T06:38:06.960Z,10.90
2023-02-12T06:40:34.681Z,5.72
2023-02-12T06:43:03.527Z,6.63
2023-02-12T06:45:31.247Z,5.90
2023-02-12T06:47:59.017Z,3.40
2023-02-12T06:50:26.800Z,4.38
2023-02-12T06:52:54.601Z,1.63
2023-02-12T06:55:22.355Z,1.67
2023-02-12T06:57:50.209Z,1.25
2023-02-12T07:00:18.216Z,3.50
2023-02-12T07:02:46.019Z,6.13
2023-02-12T07:05:13.841Z,5.18
2023-02-12T07:07:41.613Z,3.05
2023-02-12T07:10:09.945Z,4.10
2023-02-12T07:12:37.628Z,2.65
2023-02-12T07:15:05.508Z,10.70
2023-02-12T07:17:33.241Z,7.97
2023-02-12T07:20:01.102Z,6.80
2023-02-12T07:22:28.763Z,5.20
2023-02-12T07:24:56.491Z,10.25
2023-02-12T07:27:24.232Z,7.23
2023-02-12T07:29:52.084Z,6.78
2023-02-12T07:32:19.856Z,10.25
2023-02-12T07:34:47.971Z,11.47
2023-02-12T07:37:15.699Z,15.20
2023-02-12T07:39:43.509Z,9.73
2023-02-12T07:42:15.255Z,4.32
2023-02-12T07:44:42.955Z,2.73
2023-02-12T07:47:10.701Z,2.70
2023-02-12T07:49:38.434Z,3.00
2023-02-12T07:52:06.191Z,2.73
2023-02-12T07:54:34.003Z,2.50
2023-02-12T07:57:01.820Z,2.83
2023-02-12T07:59:29.641Z,3.47
2023-02-12T08:01:58.550Z,3.08
2023-02-12T08:04:26.614Z,3.20
2023-02-12T08:06:55.003Z,3.53
2023-02-12T08:09:24.203Z,3.10
2023-02-12T08:11:52.115Z,3.10
2023-02-12T08:14:20.475Z,4.55
2023-02-12T08:16:48.691Z,3.47
2023-02-12T08:19:24.009Z,3.13
2023-02-12T08:21:53.785Z,3.03
2023-02-12T08:24:24.717Z,3.57
2023-02-12T08:26:53.043Z,4.15
2023-02-12T08:29:21.837Z,4.00
2023-02-12T08:31:50.058Z,3.72
2023-02-12T08:34:24.605Z,3.93
2023-02-12T08:36:54.273Z,4.22
2023-02-12T08:39:22.275Z,5.03
2023-02-12T08:41:50.000Z,7.37
2023-02-12T08:44:17.849Z,4.57
2023-02-12T08:46:47.124Z,5.10
2023-02-12T08:49:15.770Z,5.27
2023-02-12T08:51:44.521Z,5.63
2023-02-12T08:54:13.297Z,6.40
2023-02-12T08:56:41.186Z,6.18
2023-02-12T08:59:09.336Z,5.87
2023-02-12T09:01:41.938Z,6.25
2023-02-12T09:04:11.425Z,5.97
2023-02-12T09:06:39.263Z,8.00
2023-02-12T09:09:07.579Z,7.90
2023-02-12T09:11:35.475Z,6.20
2023-02-12T09:14:03.806Z,8.20
2023-02-12T09:16:32.160Z,8.60
2023-02-12T09:19:00.131Z,7.75
2023-02-12T09:21:28.022Z,8.13
2023-02-12T09:23:55.772Z,11.17
2023-02-12T09:26:25.856Z,7.65
2023-02-12T09:28:53.991Z,7.63
2023-02-12T09:31:26.740Z,7.20
2023-02-12T09:33:55.475Z,9.48
2023-02-12T09:36:23.334Z,7.47
2023-02-12T09:38:54.089Z,7.60
2023-02-12T09:41:21.836Z,9.50
2023-02-12T09:43:54.623Z,8.90
2023-02-12T09:46:23.972Z,10.50
2023-02-12T09:48:57.035Z,8.60
2023-02-12T09:51:26.913Z,8.65
2023-02-12T09:53:57.443Z,8.55
2023-02-12T09:56:25.153Z,8.40
2023-02-12T09:58:57.742Z,7.90
2023-02-12T10:01:27.634Z,8.55
2023-02-12T10:03:55.398Z,9.57
2023-02-12T10:06:23.914Z,8.98
2023-02-12T10:08:58.700Z,9.05
2023-02-12T10:11:32.644Z,9.43
2023-02-12T10:14:00.356Z,9.23
2023-02-12T10:16:38.447Z,11.00
2023-02-12T10:19:20.547Z,8.23
2023-02-12T10:22:08.519Z,8.07
2023-02-12T10:24:57.718Z,8.88
2023-02-12T10:27:45.727Z,8.60
2023-02-12T10:30:36.938Z,6.93
2023-02-12T10:33:05.674Z,8.65
2023-02-12T10:35:33.388Z,8.95
2023-02-12T10:38:06.444Z,7.78
2023-02-12T10:40:35.071Z,8.33
2023-02-12T10:43:03.124Z,7.30
2023-02-12T10:45:34.743Z,8.10
2023-02-12T10:48:10.139Z,7.37
2023-02-12T10:50:57.269Z,7.90
2023-02-12T10:53:25.865Z,8.43
2023-02-12T10:56:05.753Z,7.60
2023-02-12T10:58:33.762Z,7.15
2023-02-12T11:01:01.621Z,6.95
2023-02-12T11:03:37.776Z,8.63
2023-02-12T11:06:15.756Z,7.47
2023-02-12T11:08:43.593Z,7.53
2023-02-12T11:11:12.559Z,7.68
2023-02-12T11:13:41.190Z,6.90
2023-02-12T11:16:11.572Z,11.52
2023-02-12T11:18:41.025Z,9.13
2023-02-12T11:21:09.697Z,7.53
2023-02-12T11:23:41.112Z,6.68
2023-02-12T11:26:21.097Z,6.95
2023-02-12T11:29:01.088Z,6.70
2023-02-12T11:31:29.011Z,7.03
2023-02-12T11:34:20.371Z,6.85
2023-02-12T11:36:48.959Z,6.72
2023-02-12T11:39:37.082Z,6.93
2023-02-12T11:42:06.658Z,6.63
2023-02-12T11:44:38.374Z,6.03
2023-02-12T11:47:09.506Z,5.97
2023-02-12T11:49:53.865Z,5.70
2023-02-12T11:52:22.410Z,6.13
2023-02-12T11:54:50.359Z,4.85
2023-02-12T11:57:36.969Z,4.67
2023-02-12T12:00:13.268Z,4.13
2023-02-12T12:02:43.807Z,4.43
2023-02-12T12:05:19.670Z,2.87
2023-02-12T12:08:00.916Z,1.92
2023-02-12T12:11:00.832Z,1.52
2023-02-12T12:13:30.284Z,1.40
2023-02-12T12:16:20.213Z,0.80
2023-02-12T12:19:07.019Z,1.13
2023-02-12T12:21:48.351Z,0.88
2023-02-12T12:24:18.149Z,1.20
2023-02-12T12:26:48.002Z,1.15
2023-02-12T12:29:16.057Z,0.85
2023-02-12T12:31:54.934Z,4.10
2023-02-12T12:34:26.476Z,3.75
2023-02-12T12:36:58.553Z,1.67
2023-02-12T12:39:29.219Z,2.05
2023-02-12T12:41:56.825Z,2.15
2023-02-12T12:44:28.428Z,2.70
2023-02-12T12:46:56.171Z,2.22
2023-02-12T12:49:23.907Z,2.00
2023-02-12T12:52:30.812Z,3.05
2023-02-12T12:54:59.204Z,3.20
2023-02-12T12:57:26.963Z,4.57
2023-02-12T12:59:58.121Z,3.97
2023-02-12T13:02:44.746Z,5.05
2023-02-12T13:05:31.163Z,5.40
2023-02-12T13:08:00.235Z,4.68
2023-02-12T13:10:31.581Z,4.78
2023-02-12T13:13:08.312Z,4.43
2023-02-12T13:15:45.185Z,4.90
2023-02-12T13:18:15.254Z,4.43
2023-02-12T13:20:58.174Z,5.18
2023-02-12T13:23:44.551Z,5.67
2023-02-12T13:26:16.745Z,7.90
2023-02-12T13:28:45.881Z,19.95
2023-02-12T13:31:32.469Z,11.13
2023-02-12T13:34:01.892Z,5.72
2023-02-12T13:36:32.529Z,4.63
2023-02-12T13:39:06.365Z,4.13
2023-02-12T13:41:34.134Z,5.00
2023-02-12T13:44:04.532Z,4.53
2023-02-12T13:46:32.291Z,5.13
2023-02-12T13:49:06.164Z,4.57
2023-02-12T13:51:33.927Z,3.50
2023-02-12T13:54:01.604Z,5.60
2023-02-12T13:56:38.569Z,5.00
2023-02-12T13:59:16.094Z,3.97
2023-02-12T14:01:46.919Z,7.22
2023-02-12T14:04:16.024Z,8.00
2023-02-12T14:07:01.012Z,3.97
2023-02-12T14:09:41.229Z,4.82
2023-02-12T14:12:18.747Z,4.30
2023-02-12T14:14:49.721Z,4.80
2023-02-12T14:17:29.848Z,4.85
2023-02-12T14:20:09.068Z,5.63
2023-02-12T14:22:36.705Z,3.00
2023-02-12T14:25:22.983Z,3.83
2023-02-12T14:28:21.459Z,3.03
2023-02-12T14:30:49.197Z,3.72
2023-02-12T14:33:25.262Z,3.37
2023-02-12T14:36:19.327Z,4.18
2023-02-12T14:38:48.066Z,3.85
2023-02-12T14:41:43.298Z,4.47
2023-02-12T14:44:30.737Z,4.65
2023-02-12T14:47:05.364Z,5.25
2023-02-12T14:49:44.904Z,5.70
2023-02-12T14:52:12.667Z,6.05
2023-02-12T14:54:53.350Z,6.88
2023-02-12T14:57:23.502Z,7.93
2023-02-12T14:59:51.191Z,7.47
2023-02-12T15:02:28.954Z,6.97
2023-02-12T15:05:00.590Z,6.00
2023-02-12T15:07:36.790Z,8.57
2023-02-12T15:10:23.476Z,6.15
2023-02-12T15:13:08.084Z,4.97
2023-02-12T15:15:38.333Z,8.50
2023-02-12T15:18:09.680Z,9.07
2023-02-12T15:20:57.258Z,10.15
2023-02-12T15:23:35.122Z,9.60
2023-02-12T15:26:03.061Z,6.97
2023-02-12T15:28:35.701Z,8.02
2023-02-12T15:31:10.590Z,5.90
2023-02-12T15:33:42.274Z,6.10
2023-02-12T15:36:10.536Z,7.13
2023-02-12T15:38:40.159Z,8.85
2023-02-12T15:41:08.194Z,9.33
2023-02-12T15:43:36.907Z,8.18
2023-02-12T15:46:06.869Z,7.70
2023-02-12T15:48:35.552Z,6.97
2023-02-12T15:51:26.320Z,8.77
2023-02-12T15:53:54.049Z,6.78
2023-02-12T15:56:26.903Z,8.18
2023-02-12T15:58:59.201Z,6.53
2023-02-12T16:01:27.839Z,7.25
2023-02-12T16:03:58.011Z,5.65
2023-02-12T16:06:26.747Z,5.37
2023-02-12T16:09:03.270Z,5.97
2023-02-12T16:11:31.119Z,6.95
2023-02-12T16:13:58.790Z,7.00
2023-02-12T16:16:27.533Z,6.50
2023-02-12T16:19:05.961Z,7.10
2023-02-12T16:21:34.640Z,6.63
2023-02-12T16:24:02.366Z,6.27
2023-02-12T16:26:30.098Z,6.43
2023-02-12T16:28:58.215Z,8.98
2023-02-12T16:31:27.475Z,13.87
2023-02-12T16:33:57.841Z,10.93
2023-02-12T16:36:25.507Z,7.97
2023-02-12T16:38:53.869Z,5.88
2023-02-12T16:41:21.750Z,6.60
2023-02-12T16:43:51.174Z,9.27
2023-02-12T16:46:19.419Z,7.63
2023-02-12T16:48:51.863Z,7.60
2023-02-12T16:51:22.357Z,7.65
2023-02-12T16:53:53.947Z,7.72
2023-02-12T16:56:22.764Z,6.63
2023-02-12T16:58:51.777Z,6.97
2023-02-12T17:01:21.501Z,6.65
2023-02-12T17:03:50.673Z,6.65
2023-02-12T17:06:19.337Z,8.57
2023-02-12T17:08:48.037Z,8.82
2023-02-12T17:11:17.872Z,11.00
2023-02-12T17:13:48.885Z,8.07
2023-02-12T17:16:29.851Z,8.07
2023-02-12T17:18:59.249Z,7.53
2023-02-12T17:21:26.929Z,14.10
2023-02-12T17:23:54.642Z,11.70
2023-02-12T17:26:22.847Z,13.60
2023-02-12T17:28:50.646Z,15.05
2023-02-12T17:31:19.727Z,12.53
2023-02-12T17:33:47.424Z,11.93
2023-02-12T17:36:15.256Z,8.23
2023-02-12T17:38:42.961Z,6.33
2023-02-12T17:41:11.382Z,5.93
2023-02-12T17:43:39.125Z,6.40
2023-02-12T17:46:11.264Z,6.40
2023-02-12T17:48:40.518Z,7.45
2023-02-12T17:51:08.625Z,8.50
2023-02-12T17:53:36.325Z,7.65
2023-02-12T17:56:04.175Z,8.10
2023-02-12T17:58:31.937Z,6.80
2023-02-12T18:01:07.205Z,6.88
2023-02-12T18:03:35.142Z,8.10
2023-02-12T18:06:02.856Z,7.60
2023-02-12T18:08:31.015Z,8.32
2023-02-12T18:10:58.950Z,7.67
2023-02-12T18:13:26.851Z,7.88
2023-02-12T18:15:54.714Z,6.57
2023-02-12T18:18:22.602Z,6.88
2023-02-12T18:20:50.482Z,6.67
2023-02-12T18:23:18.273Z,6.25
2023-02-12T18:25:46.298Z,6.70
2023-02-12T18:28:14.381Z,6.83
2023-02-12T18:30:44.154Z,5.63
2023-02-12T18:33:12.713Z,6.15
2023-02-12T18:35:42.090Z,6.13
2023-02-12T18:38:10.885Z,5.75
2023-02-12T18:40:41.051Z,5.85
2023-02-12T18:43:11.246Z,5.40
2023-02-12T18:45:42.033Z,8.43
2023-02-12T18:48:11.578Z,9.00
2023-02-12T18:50:39.943Z,9.63
2023-02-12T18:53:07.921Z,9.97
2023-02-12T18:55:38.058Z,8.95
2023-02-12T18:58:05.939Z,8.00
2023-02-12T19:00:34.931Z,8.47
2023-02-12T19:03:02.753Z,8.25
2023-02-12T19:05:31.913Z,10.68
2023-02-12T19:08:00.338Z,7.72
2023-02-12T19:10:28.206Z,7.40
2023-02-12T19:12:56.331Z,14.38
2023-02-12T19:15:26.951Z,24.83
2023-02-12T19:17:55.343Z,11.83
2023-02-12T19:20:24.216Z,7.43
2023-02-12T19:22:52.010Z,6.78
2023-02-12T19:25:21.693Z,7.03
2023-02-12T19:27:49.536Z,7.60
2023-02-12T19:30:20.350Z,7.32
2023-02-12T19:32:49.963Z,7.18
2023-02-12T19:35:19.014Z,7.50
2023-02-12T19:37:48.187Z,8.80
2023-02-12T19:40:16.108Z,10.80
2023-02-12T19:42:44.279Z,11.47
2023-02-12T19:45:12.378Z,9.30
2023-02-12T19:47:40.306Z,8.73
2023-02-12T19:50:08.400Z,10.87
2023-02-12T19:52:36.092Z,12.20
2023-02-12T19:55:03.836Z,12.45
2023-02-12T19:57:31.670Z,10.80
2023-02-12T19:59:59.589Z,11.10
2023-02-12T20:02:28.722Z,10.55
2023-02-12T20:04:57.113Z,11.43
2023-02-12T20:07:24.749Z,10.60
2023-02-12T20:09:56.203Z,12.02
2023-02-12T20:12:27.001Z,11.52
2023-02-12T20:14:57.160Z,13.03
2023-02-12T20:17:25.078Z,13.98
2023-02-12T20:19:53.175Z,12.38
2023-02-12T20:22:24.620Z,12.50
2023-02-12T20:24:52.639Z,11.00
2023-02-12T20:27:23.855Z,13.15
2023-02-12T20:29:53.080Z,12.43
2023-02-12T20:32:20.782Z,10.20
2023-02-12T20:34:51.812Z,11.90
2023-02-12T20:37:20.726Z,11.35
2023-02-12T20:39:50.302Z,12.40
2023-02-12T20:42:18.902Z,10.50
2023-02-12T20:44:46.584Z,10.63
2023-02-12T20:47:14.487Z,10.52
2023-02-12T20:49:43.030Z,10.67
2023-02-12T20:52:11.632Z,12.65
2023-02-12T20:54:39.974Z,10.27
2023-02-12T20:57:08.212Z,10.80
2023-02-12T20:59:36.148Z,11.98
2023-02-12T21:02:03.958Z,12.60
2023-02-12T21:04:32.244Z,10.90
2023-02-12T21:07:00.288Z,11.57
2023-02-12T21:09:28.112Z,11.20
2023-02-12T21:12:01.174Z,10.25
2023-02-12T21:14:28.916Z,9.20
2023-02-12T21:16:56.719Z,9.45
2023-02-12T21:19:24.512Z,9.13
2023-02-12T21:21:52.213Z,10.87
2023-02-12T21:24:21.850Z,10.48
2023-02-12T21:26:49.804Z,10.57
2023-02-12T21:29:17.723Z,9.03
2023-02-12T21:31:46.613Z,8.07
2023-02-12T21:34:15.572Z,8.80
2023-02-12T21:36:45.343Z,8.82
2023-02-12T21:39:13.866Z,10.23
2023-02-12T21:41:42.054Z,10.30
2023-02-12T21:44:11.989Z,9.85
2023-02-12T21:46:39.829Z,10.13
2023-02-12T21:49:07.772Z,10.82
2023-02-12T21:51:39.356Z,9.63
2023-02-12T21:54:08.242Z,11.87
2023-02-12T21:56:39.170Z,9.95
2023-02-12T21:59:08.764Z,8.48
2023-02-12T22:01:37.200Z,9.65
2023-02-12T22:04:05.419Z,7.80
2023-02-12T22:06:33.114Z,7.43
2023-02-12T22:09:06.541Z,8.30
2023-02-12T22:11:34.447Z,7.80
2023-02-12T22:14:02.277Z,7.53
2023-02-12T22:16:30.009Z,7.80
2023-02-12T22:18:59.392Z,9.07
2023-02-12T22:21:28.349Z,9.27
2023-02-12T22:23:57.676Z,10.77
2023-02-12T22:26:26.787Z,9.52
2023-02-12T22:28:58.276Z,13.60
2023-02-12T22:31:28.729Z,8.13
2023-02-12T22:33:57.507Z,7.20
2023-02-12T22:36:25.315Z,10.80
2023-02-12T22:38:53.735Z,11.02
2023-02-12T22:41:21.469Z,8.63
2023-02-12T22:43:49.260Z,9.10
2023-02-12T22:46:17.275Z,6.72
2023-02-12T22:48:45.300Z,8.15
2023-02-12T22:51:33.501Z,6.93
2023-02-12T22:54:01.321Z,8.50
2023-02-12T22:56:29.087Z,7.95
2023-02-12T22:58:57.347Z,7.35
2023-02-12T23:01:25.182Z,6.60
2023-02-12T23:03:53.139Z,7.68
2023-02-12T23:06:22.002Z,7.43
2023-02-12T23:08:53.258Z,7.03
2023-02-12T23:11:21.115Z,6.65
2023-02-12T23:13:48.862Z,8.25
2023-02-12T23:16:16.579Z,7.90
2023-02-12T23:18:44.396Z,7.93
2023-02-12T23:21:12.008Z,8.05
2023-02-12T23:23:39.764Z,7.95
2023-02-12T23:26:07.566Z,8.70
2023-02-12T23:28:35.325Z,7.55
2023-02-12T23:31:03.449Z,7.88
2023-02-12T23:33:31.309Z,8.43
2023-02-12T23:35:59.037Z,7.68
2023-02-12T23:38:26.851Z,8.60
2023-02-12T23:40:54.742Z,10.10
2023-02-12T23:43:22.507Z,9.53
2023-02-12T23:45:50.354Z,8.43
2023-02-12T23:48:18.035Z,7.97
2023-02-12T23:50:47.758Z,13.10
2023-02-12T23:53:18.436Z,9.32
2023-02-12T23:55:46.193Z,7.93
2023-02-12T23:58:13.955Z,8.20
